»·PEaware :: N921VN KGCN-KHII

N921VN :: KGCN-KHII

FLIGHT INFORMATION

Flight Status: Arrived
Operator: Privately registered:
United States
More flights under this callsign
Pilot: Kevin M. (7)
Aircraft: CESSNA 208 CARAVAN
(C208)
More flights by this aircraft type
Origin: KGCN Grand Canyon Natl Park
United States
Destination: KHII Lake Havasu City
United States
More flights between these airports :: More routes between these airports
Route:
File this flight plan on PilotEdge
Remarks: alphabet challenge
Altitude:
(Current/Filed)
10,500ft
Speed:
(Current/Filed)
150kts
Departed: 01-Oct-20 11:47 AM
Arrived: 01-Oct-20 12:41 PM
Distance/Time
Traveled:
137nm/0:53
Distance/Time
To Go:
Arrived

Flight Plot

Page will automatically refresh every two minutes.


Map Options




Map Legend


Flown Route
Filed Route
Departure Airport
Arrival Airport
Navaid (VOR, NDB)
Fix

Horizontal Profiles

Position Reports

Time Latitude Longitude Heading Altitude Ground
Speed
01-Oct-20 11:32 35.958517 -112.137767 286 6608ft 0kts
01-Oct-20 11:32 35.958517 -112.137767 286 6608ft 0kts
01-Oct-20 11:33 35.958517 -112.137767 286 6608ft 0kts
01-Oct-20 11:34 35.958517 -112.137767 286 6608ft 0kts
01-Oct-20 11:35 35.958517 -112.137767 286 6608ft 0kts
01-Oct-20 11:36 35.958517 -112.137767 286 6608ft 0kts
01-Oct-20 11:37 35.958517 -112.137767 286 6608ft 0kts
01-Oct-20 11:38 35.958517 -112.137767 286 6608ft 0kts
01-Oct-20 11:39 35.958517 -112.137767 286 6608ft 0kts
01-Oct-20 11:40 35.958517 -112.137767 286 6608ft 0kts
01-Oct-20 11:41 35.958517 -112.137767 286 6608ft 0kts
01-Oct-20 11:42 35.958517 -112.137767 286 6608ft 0kts
01-Oct-20 11:43 35.958517 -112.137767 286 6608ft 0kts
01-Oct-20 11:44 35.958745 -112.138071 319 6608ft 8kts
01-Oct-20 11:45 35.954304 -112.143143 218 6590ft 26kts
01-Oct-20 11:46 35.946314 -112.151629 222 6557ft 46kts
01-Oct-20 11:47 35.943480 -112.156348 44 6544ft 16kts
01-Oct-20 11:48 35.958695 -112.143461 5 7083ft 92kts
01-Oct-20 11:49 35.949297 -112.167329 208 8071ft 109kts
01-Oct-20 11:50 35.922135 -112.182179 191 9092ft 120kts
01-Oct-20 11:51 35.890184 -112.192259 229 10028ft 131kts
01-Oct-20 11:52 35.878642 -112.233031 238 10518ft 160kts
01-Oct-20 11:53 35.851167 -112.280102 231 10055ft 185kts
01-Oct-20 11:54 35.823849 -112.325506 233 10586ft 164kts
01-Oct-20 11:55 35.796040 -112.371996 232 10574ft 170kts
01-Oct-20 11:56 35.767861 -112.418962 232 10572ft 171kts
01-Oct-20 11:57 35.739594 -112.466041 232 10572ft 171kts
01-Oct-20 11:58 35.711140 -112.513348 232 10568ft 172kts
01-Oct-20 11:59 35.682539 -112.560851 232 10567ft 172kts
01-Oct-20 12:00 35.653967 -112.608239 232 10563ft 172kts
01-Oct-20 12:01 35.625581 -112.655240 232 10603ft 163kts
01-Oct-20 12:02 35.607241 -112.685547 231 10162ft 98kts
01-Oct-20 12:03 35.588953 -112.715858 232 9841ft 129kts
01-Oct-20 12:04 35.560821 -112.754257 199 9739ft 167kts
01-Oct-20 12:05 35.534543 -112.795056 252 10502ft 161kts
01-Oct-20 12:06 35.503202 -112.829515 224 11311ft 151kts
01-Oct-20 12:07 35.486771 -112.884282 234 11125ft 172kts
01-Oct-20 12:08 35.455549 -112.935615 232 10817ft 163kts
01-Oct-20 12:09 35.426640 -112.980487 237 11228ft 146kts
01-Oct-20 12:10 35.398178 -113.030160 231 10706ft 192kts
01-Oct-20 12:11 35.366548 -113.081242 232 10631ft 184kts
01-Oct-20 12:12 35.335967 -113.131325 232 10624ft 183kts
01-Oct-20 12:13 35.305379 -113.181197 232 10623ft 183kts
01-Oct-20 12:14 35.274771 -113.231062 232 10617ft 183kts
01-Oct-20 12:15 35.244141 -113.280894 232 10614ft 183kts
01-Oct-20 12:16 35.213460 -113.330735 232 10607ft 182kts
01-Oct-20 12:17 35.182943 -113.380235 232 10603ft 182kts
01-Oct-20 12:18 35.152399 -113.429708 233 10595ft 182kts
01-Oct-20 12:19 35.121878 -113.479086 233 10591ft 182kts
01-Oct-20 12:20 35.091305 -113.528461 233 10584ft 182kts
01-Oct-20 12:21 35.060773 -113.577718 232 10532ft 183kts
01-Oct-20 12:22 35.030039 -113.627217 232 10489ft 181kts
01-Oct-20 12:23 34.999669 -113.676082 232 10481ft 180kts
01-Oct-20 12:24 34.969487 -113.724551 232 10578ft 176kts
01-Oct-20 12:25 34.939422 -113.772782 232 10597ft 179kts
01-Oct-20 12:26 34.909119 -113.821331 232 10595ft 180kts
01-Oct-20 12:27 34.878791 -113.869840 232 10589ft 180kts
01-Oct-20 12:28 34.848346 -113.918478 232 10585ft 179kts
01-Oct-20 12:29 34.818104 -113.966727 232 10580ft 179kts
01-Oct-20 12:30 34.787693 -114.015177 232 10578ft 179kts
01-Oct-20 12:31 34.757330 -114.063488 232 10576ft 180kts
01-Oct-20 12:32 34.726728 -114.112105 232 10574ft 180kts
01-Oct-20 12:33 34.696163 -114.160595 232 10572ft 181kts
01-Oct-20 12:34 34.661135 -114.207012 222 9487ft 187kts
01-Oct-20 12:35 34.621121 -114.247068 220 7680ft 191kts
01-Oct-20 12:36 34.597803 -114.302501 263 5371ft 185kts
01-Oct-20 12:37 34.588613 -114.356250 186 3083ft 169kts
01-Oct-20 12:38 34.551573 -114.330667 178 1717ft 122kts
01-Oct-20 12:39 34.564109 -114.353330 330 794ft 115kts
01-Oct-20 12:40 34.574310 -114.360691 310 768ft 34kts
01-Oct-20 12:41 34.568121 -114.357472 149 773ft 40kts
01-Oct-20 12:42 34.563545 -114.354412 232 784ft 7kts
01-Oct-20 12:43 34.564887 -114.356362 36 776ft 0kts

Navigation Log

Ident Type
Flight plan parsing failed, navigation log unavailable